Time;durP1;ratioP1;P1;durP2;ratioP2;P2;SDS_P1;SDS_P2;PMS_P1;PMS_P2;Temp;Humidity;BMP_temperature;BMP_pressure;BME280_temperature;BME280_humidity;BME280_pressure;Samples;Min_cycle;Max_cycle;Signal;HPM_P1;HPM_P2
2023/07/22 00:00:01;;;;;;;1.15;0.90;;;;;;;18.32;67.30;99390.41;338645;28;16319;-65
2023/07/22 00:00:14;;;;;;;1.15;0.90;;;;;;;18.28;67.64;99391.56;340323;28;4643;-64
2023/07/22 00:00:26;;;;;;;1.08;0.82;;;;;;;18.30;67.21;99389.69;337907;28;18077;-65
2023/07/22 00:00:38;;;;;;;1.15;0.98;;;;;;;18.29;67.38;99388.00;341481;28;4483;-62
2023/07/22 00:00:50;;;;;;;1.02;0.93;;;;;;;18.30;67.45;99389.69;339984;28;5432;-64
2023/07/22 00:01:02;;;;;;;0.68;0.68;;;;;;;18.29;67.42;99390.66;340424;28;17973;-65
2023/07/22 00:01:14;;;;;;;1.00;0.75;;;;;;;18.32;67.38;99394.84;338742;28;18560;-65
2023/07/22 00:01:26;;;;;;;1.10;0.73;;;;;;;18.32;67.24;99384.31;338408;28;11715;-65
2023/07/22 00:01:38;;;;;;;1.35;0.80;;;;;;;18.32;67.37;99385.16;341675;28;4816;-64
2023/07/22 00:01:50;;;;;;;1.20;0.85;;;;;;;18.34;67.44;99395.59;340709;28;5089;-64
2023/07/22 00:02:03;;;;;;;1.08;0.90;;;;;;;18.34;67.33;99383.25;338348;28;18354;-65
2023/07/22 00:02:15;;;;;;;0.95;0.77;;;;;;;18.35;67.41;99384.09;341635;28;5534;-64
2023/07/22 00:02:27;;;;;;;0.60;0.60;;;;;;;18.35;67.54;99379.69;341523;28;17938;-64
2023/07/22 00:02:39;;;;;;;0.75;0.63;;;;;;;18.38;67.30;99386.53;333232;28;18135;-63
2023/07/22 00:02:51;;;;;;;0.80;0.60;;;;;;;18.40;67.38;99383.78;340874;28;4565;-64
2023/07/22 00:03:03;;;;;;;0.77;0.70;;;;;;;18.41;67.69;99388.97;338934;28;18030;-64
2023/07/22 00:03:15;;;;;;;0.60;0.60;;;;;;;18.39;68.14;99388.22;341751;28;5487;-63
2023/07/22 00:03:28;;;;;;;0.80;0.80;;;;;;;18.41;68.07;99383.69;339007;28;5243;-65
2023/07/22 00:03:40;;;;;;;1.17;0.90;;;;;;;18.40;68.43;99383.78;340858;28;5725;-63
2023/07/22 00:03:52;;;;;;;1.02;0.90;;;;;;;18.40;68.30;99387.25;338530;28;12150;-64
2023/07/22 00:04:05;;;;;;;1.00;0.80;;;;;;;18.42;68.14;99380.09;335989;28;4593;-64
2023/07/22 00:04:17;;;;;;;1.10;0.90;;;;;;;18.43;68.24;99380.94;341481;28;4734;-64
2023/07/22 00:04:29;;;;;;;1.58;0.75;;;;;;;18.43;68.08;99383.56;338597;28;17994;-65
2023/07/22 00:04:41;;;;;;;1.30;0.60;;;;;;;18.44;68.37;99382.63;340704;28;4661;-65
2023/07/22 00:04:53;;;;;;;1.27;0.70;;;;;;;18.44;68.51;99387.91;338551;28;16354;-65
2023/07/22 00:05:05;;;;;;;0.90;0.70;;;;;;;18.43;68.25;99391.47;341117;28;4839;-65
2023/07/22 00:05:22;;;;;;;2.38;0.90;;;;;;;18.38;68.90;99378.63;341282;28;4861;-63
2023/07/22 00:05:34;;;;;;;3.20;1.00;;;;;;;18.36;69.03;99384.00;332084;28;17992;-65
2023/07/22 00:05:46;;;;;;;1.75;0.77;;;;;;;18.37;68.64;99387.47;341174;28;4825;-65
2023/07/22 00:06:05;;;;;;;1.05;0.75;;;;;;;18.37;68.72;99382.19;338618;28;18297;-65
2023/07/22 00:06:18;;;;;;;0.70;0.65;;;;;;;18.40;68.60;99386.44;338034;28;17807;-64
2023/07/22 00:06:30;;;;;;;0.70;0.70;;;;;;;18.39;68.72;99375.06;338365;28;18332;-64
2023/07/22 00:06:42;;;;;;;0.77;0.65;;;;;;;18.40;68.57;99382.00;342215;28;4578;-64
2023/07/22 00:06:54;;;;;;;0.80;0.70;;;;;;;18.41;68.61;99383.69;335874;28;18141;-64
2023/07/22 00:07:06;;;;;;;0.63;0.60;;;;;;;18.41;68.46;99388.09;337412;28;17255;-64
2023/07/22 00:07:18;;;;;;;0.77;0.70;;;;;;;18.42;68.39;99388.00;340042;28;5265;-64
2023/07/22 00:07:30;;;;;;;0.88;0.68;;;;;;;18.38;68.93;99386.53;335547;28;19017;-63
2023/07/22 00:07:42;;;;;;;0.77;0.68;;;;;;;18.41;68.74;99388.09;338242;28;4495;-64
2023/07/22 00:07:54;;;;;;;0.70;0.70;;;;;;;18.44;68.31;99387.91;336109;28;17308;-65
2023/07/22 00:08:06;;;;;;;0.77;0.70;;;;;;;18.43;68.51;99386.19;338842;28;5406;-65
2023/07/22 00:08:18;;;;;;;0.82;0.73;;;;;;;18.44;68.37;99387.91;338022;28;4735;-64
2023/07/22 00:08:29;;;;;;;0.82;0.70;;;;;;;18.43;68.43;99384.44;334493;28;4686;-65
2023/07/22 00:08:42;;;;;;;0.75;0.70;;;;;;;18.46;68.08;99386.00;334295;28;18104;-63
2023/07/22 00:08:54;;;;;;;0.85;0.70;;;;;;;18.47;68.02;99382.41;338460;28;4529;-64
2023/07/22 00:09:06;;;;;;;0.90;0.70;;;;;;;18.46;68.11;99381.56;337099;28;19024;-64
2023/07/22 00:09:18;;;;;;;0.93;0.70;;;;;;;18.46;67.90;99386.00;339923;28;5622;-64
2023/07/22 00:09:33;;;;;;;0.90;0.75;;;;;;;18.41;68.62;99382.84;337244;28;18124;-65
2023/07/22 00:09:45;;;;;;;1.08;0.75;;;;;;;18.42;68.52;99384.53;338523;28;10801;-64
2023/07/22 00:09:57;;;;;;;1.33;0.70;;;;;;;18.39;68.69;99382.09;340235;28;4647;-63
2023/07/22 00:10:09;;;;;;;1.10;0.70;;;;;;;18.41;68.54;99383.69;339101;28;4892;-64
2023/07/22 00:10:21;;;;;;;0.93;0.68;;;;;;;18.42;68.27;99380.09;336487;28;18222;-64
2023/07/22 00:10:33;;;;;;;0.70;0.70;;;;;;;18.41;68.04;99383.69;338922;28;5177;-64
2023/07/22 00:10:45;;;;;;;0.70;0.70;;;;;;;18.43;68.02;99370.41;336765;28;4672;-63
2023/07/22 00:10:57;;;;;;;1.00;0.70;;;;;;;18.43;67.99;99373.91;339297;28;5474;-63
2023/07/22 00:11:09;;;;;;;0.98;0.70;;;;;;;18.42;68.33;99376.63;338848;28;4565;-64
2023/07/22 00:11:21;;;;;;;1.00;0.70;;;;;;;18.37;68.89;99387.47;336241;28;18236;-63
2023/07/22 00:11:33;;;;;;;0.82;0.73;;;;;;;18.39;68.42;99380.34;338044;28;8373;-63
2023/07/22 00:11:45;;;;;;;1.13;0.80;;;;;;;18.42;68.04;99379.28;336777;28;12931;-63
2023/07/22 00:11:57;;;;;;;1.20;0.85;;;;;;;18.44;68.12;99382.63;340170;28;5221;-64
2023/07/22 00:12:10;;;;;;;0.95;0.65;;;;;;;18.44;68.00;99377.38;340108;28;4822;-64
2023/07/22 00:12:25;;;;;;;0.68;0.60;;;;;;;18.46;68.04;99380.75;338848;28;18163;-64
2023/07/22 00:12:37;;;;;;;0.95;0.70;;;;;;;18.45;68.02;99376.41;337555;28;18092;-63
2023/07/22 00:12:49;;;;;;;0.90;0.68;;;;;;;18.45;67.90;99389.56;340476;28;4902;-63
2023/07/22 00:13:01;;;;;;;0.82;0.77;;;;;;;18.45;67.82;99379.03;341015;28;4570;-65
2023/07/22 00:13:13;;;;;;;0.90;0.80;;;;;;;18.42;67.64;99384.53;338156;28;18209;-64
2023/07/22 00:13:26;;;;;;;0.95;0.80;;;;;;;18.42;67.62;99387.16;341424;28;4853;-63
2023/07/22 00:13:38;;;;;;;0.90;0.77;;;;;;;18.41;67.58;99382.84;337632;28;18376;-63
2023/07/22 00:13:51;;;;;;;0.85;0.70;;;;;;;18.40;67.71;99383.78;341073;28;4875;-64
2023/07/22 00:14:06;;;;;;;0.73;0.50;;;;;;;18.41;68.10;99382.84;338567;28;18194;-63
2023/07/22 00:14:18;;;;;;;0.57;0.50;;;;;;;18.40;67.93;99382.00;339044;28;17987;-64
2023/07/22 00:14:31;;;;;;;0.45;0.45;;;;;;;18.38;67.92;99377.81;341763;28;4663;-64
2023/07/22 00:14:44;;;;;;;0.60;0.60;;;;;;;18.40;67.63;99383.78;334293;28;5559;-64
2023/07/22 00:14:56;;;;;;;0.65;0.65;;;;;;;18.38;68.00;99377.81;341313;28;5528;-64
2023/07/22 00:15:11;;;;;;;1.65;0.80;;;;;;;18.36;68.14;99378.72;337708;28;18931;-63
2023/07/22 00:15:25;;;;;;;2.78;0.90;;;;;;;18.34;68.11;99371.91;338189;28;18052;-64
2023/07/22 00:15:37;;;;;;;2.22;0.85;;;;;;;18.35;67.93;99384.97;341373;28;6037;-64
2023/07/22 00:15:50;;;;;;;0.95;0.70;;;;;;;18.36;68.09;99381.38;337418;28;18134;-64
2023/07/22 00:16:04;;;;;;;0.70;0.70;;;;;;;18.36;67.96;99381.38;341493;28;4617;-64
2023/07/22 00:16:16;;;;;;;0.75;0.70;;;;;;;18.34;68.07;99378.00;338578;28;17824;-64
2023/07/22 00:16:29;;;;;;;0.90;0.70;;;;;;;18.36;67.91;99376.09;342121;28;5077;-64
2023/07/22 00:16:41;;;;;;;1.10;0.70;;;;;;;18.36;67.77;99380.53;339539;28;18256;-63
2023/07/22 00:16:53;;;;;;;0.70;0.60;;;;;;;18.36;67.42;99381.38;339631;28;11408;-64
2023/07/22 00:17:06;;;;;;;0.75;0.70;;;;;;;18.36;68.01;99381.38;342689;28;5628;-64
2023/07/22 00:17:18;;;;;;;0.80;0.80;;;;;;;18.36;67.97;99380.53;342349;28;5466;-64
2023/07/22 00:17:30;;;;;;;0.93;0.80;;;;;;;18.36;67.87;99370.84;339883;28;18331;-64
2023/07/22 00:17:43;;;;;;;1.98;0.93;;;;;;;18.38;67.89;99375.16;342297;28;5709;-64
2023/07/22 00:17:55;;;;;;;1.80;0.80;;;;;;;18.36;67.83;99381.38;334775;28;9897;-63
2023/07/22 00:18:08;;;;;;;0.80;0.70;;;;;;;18.33;68.01;99378.97;341920;28;4566;-63
2023/07/22 00:18:20;;;;;;;0.90;0.70;;;;;;;18.31;68.04;99377.34;339634;28;16416;-64
2023/07/22 00:18:32;;;;;;;0.90;0.73;;;;;;;18.32;67.96;99374.63;341131;28;4476;-64
2023/07/22 00:18:44;;;;;;;0.80;0.70;;;;;;;18.30;67.71;99376.53;341384;28;4656;-65
2023/07/22 00:18:56;;;;;;;0.75;0.73;;;;;;;18.29;67.80;99380.13;338291;28;18266;-65
2023/07/22 00:19:08;;;;;;;0.82;0.70;;;;;;;18.30;67.63;99379.16;341565;28;4649;-65
2023/07/22 00:19:20;;;;;;;0.95;0.80;;;;;;;18.30;67.87;99375.69;341240;28;8475;-64
2023/07/22 00:19:33;;;;;;;0.93;0.82;;;;;;;18.27;68.25;99383.78;337971;28;17655;-64
2023/07/22 00:19:45;;;;;;;0.80;0.77;;;;;;;18.24;68.61;99376.94;338592;28;11807;-65
2023/07/22 00:19:57;;;;;;;0.70;0.70;;;;;;;18.25;68.32;99377.78;341079;28;4668;-64
2023/07/22 00:20:13;;;;;;;0.70;0.57;;;;;;;18.24;68.41;99376.94;341365;28;4652;-64
2023/07/22 00:20:26;;;;;;;0.73;0.52;;;;;;;18.24;68.44;99382.22;339341;28;18180;-65
2023/07/22 00:20:38;;;;;;;0.73;0.52;;;;;;;18.22;68.81;99384.09;341565;28;4504;-65
2023/07/22 00:20:50;;;;;;;0.68;0.60;;;;;;;18.20;68.82;99386.00;340990;28;4708;-65
2023/07/22 00:21:02;;;;;;;0.60;0.60;;;;;;;18.22;68.80;99378.00;336774;28;17942;-65
2023/07/22 00:21:15;;;;;;;0.60;0.60;;;;;;;18.23;68.61;99380.53;338778;28;17422;-65
2023/07/22 00:21:28;;;;;;;0.50;0.50;;;;;;;18.22;68.73;99378.84;338307;28;16562;-65
2023/07/22 00:21:40;;;;;;;0.57;0.57;;;;;;;18.25;68.46;99378.66;339811;28;4663;-65
2023/07/22 00:21:52;;;;;;;1.08;0.63;;;;;;;18.24;68.38;99370.84;337866;28;18202;-65
2023/07/22 00:22:04;;;;;;;1.48;0.77;;;;;;;18.20;68.56;99378.09;341013;28;4507;-65
2023/07/22 00:22:16;;;;;;;1.30;0.80;;;;;;;18.21;68.68;99382.44;340867;28;4493;-65
2023/07/22 00:22:29;;;;;;;1.08;0.70;;;;;;;18.21;68.85;99384.19;337231;28;18066;-65
2023/07/22 00:22:42;;;;;;;0.73;0.65;;;;;;;18.19;68.72;99379.06;334522;28;5008;-65
2023/07/22 00:22:54;;;;;;;1.00;0.70;;;;;;;18.22;68.49;99378.84;336187;28;19103;-65
2023/07/22 00:23:06;;;;;;;0.88;0.70;;;;;;;18.22;68.62;99384.09;339749;28;4573;-65
2023/07/22 00:23:19;;;;;;;0.73;0.57;;;;;;;18.23;68.49;99380.53;336447;28;18410;-65
2023/07/22 00:23:31;;;;;;;0.75;0.55;;;;;;;18.23;68.44;99384.94;339762;28;4584;-65
2023/07/22 00:23:46;;;;;;;1.20;0.70;;;;;;;18.21;68.54;99382.44;336832;28;17791;-65
2023/07/22 00:23:59;;;;;;;1.02;0.77;;;;;;;18.21;68.41;99379.81;338002;28;12697;-65
2023/07/22 00:24:11;;;;;;;0.88;0.70;;;;;;;18.21;68.58;99382.44;337969;28;17288;-65
2023/07/22 00:24:23;;;;;;;0.73;0.60;;;;;;;18.20;68.48;99383.38;336812;28;16211;-65
2023/07/22 00:24:35;;;;;;;0.80;0.63;;;;;;;18.20;68.58;99386.00;341086;28;4459;-65
2023/07/22 00:24:48;;;;;;;0.70;0.70;;;;;;;18.19;68.73;99381.69;339502;28;5370;-65
2023/07/22 00:25:01;;;;;;;1.15;0.73;;;;;;;18.18;68.65;99382.63;338971;28;16644;-65
2023/07/22 00:25:13;;;;;;;1.20;0.60;;;;;;;18.17;68.83;99383.59;338564;28;16139;-64
2023/07/22 00:25:25;;;;;;;1.35;0.68;;;;;;;18.19;68.68;99372.94;340745;28;4625;-65
2023/07/22 00:25:37;;;;;;;0.70;0.60;;;;;;;18.20;68.48;99383.38;336576;28;4751;-65
2023/07/22 00:25:49;;;;;;;0.55;0.55;;;;;;;18.21;68.48;99386.84;337315;28;19734;-65
2023/07/22 00:26:01;;;;;;;0.50;0.50;;;;;;;18.20;68.30;99378.09;340496;28;4507;-65
2023/07/22 00:26:13;;;;;;;0.70;0.60;;;;;;;18.22;68.33;99383.28;341002;28;4504;-65
2023/07/22 00:26:25;;;;;;;1.02;0.60;;;;;;;18.20;68.26;99385.16;337215;28;19036;-65
2023/07/22 00:26:37;;;;;;;1.13;0.65;;;;;;;18.18;68.86;99382.63;341924;28;4845;-65
2023/07/22 00:26:49;;;;;;;1.52;0.75;;;;;;;18.15;68.90;99388.97;337840;28;18116;-65
2023/07/22 00:27:01;;;;;;;1.58;0.85;;;;;;;18.15;69.08;99382.84;341218;28;4700;-64
2023/07/22 00:27:14;;;;;;;1.13;0.70;;;;;;;18.16;68.89;99376.63;340463;28;5607;-65
2023/07/22 00:27:26;;;;;;;0.90;0.70;;;;;;;18.14;68.70;99384.63;338975;28;18041;-65
2023/07/22 00:27:39;;;;;;;0.80;0.60;;;;;;;18.17;68.76;99380.97;341359;28;4694;-64
2023/07/22 00:27:51;;;;;;;0.73;0.60;;;;;;;18.17;68.43;99380.97;338564;28;17860;-64
2023/07/22 00:28:04;;;;;;;0.60;0.60;;;;;;;18.18;68.63;99382.63;341943;28;4706;-65
2023/07/22 00:28:16;;;;;;;0.63;0.63;;;;;;;18.18;68.47;99382.63;339540;28;18396;-65
2023/07/22 00:28:28;;;;;;;0.85;0.70;;;;;;;18.19;68.40;99386.97;341847;28;4707;-65
2023/07/22 00:28:39;;;;;;;1.00;0.70;;;;;;;18.17;68.61;99381.81;339355;28;5902;-65
2023/07/22 00:28:51;;;;;;;0.70;0.60;;;;;;;18.19;68.60;99383.47;341992;28;4860;-65
2023/07/22 00:29:04;;;;;;;0.57;0.57;;;;;;;18.18;68.63;99382.63;341954;28;5026;-65
2023/07/22 00:29:16;;;;;;;0.75;0.70;;;;;;;18.18;68.59;99382.63;339090;28;18170;-65
2023/07/22 00:29:28;;;;;;;0.75;0.75;;;;;;;18.19;68.67;99379.06;341401;28;4692;-64
2023/07/22 00:29:40;;;;;;;0.90;0.88;;;;;;;18.20;68.41;99386.00;338463;28;19001;-65
2023/07/22 00:29:52;;;;;;;1.05;0.80;;;;;;;18.20;68.64;99385.16;342358;28;5153;-64
2023/07/22 00:30:08;;;;;;;1.55;0.80;;;;;;;18.18;68.63;99382.63;341448;28;4713;-64
2023/07/22 00:30:20;;;;;;;1.45;0.70;;;;;;;18.18;68.84;99387.91;339239;28;17802;-65
2023/07/22 00:30:34;;;;;;;1.83;0.80;;;;;;;18.16;69.20;99379.28;341568;28;4542;-65
2023/07/22 00:30:46;;;;;;;1.33;0.77;;;;;;;18.15;69.14;99382.84;337741;28;18313;-64
2023/07/22 00:30:58;;;;;;;0.63;0.60;;;;;;;18.17;68.83;99380.97;341697;28;4462;-64
2023/07/22 00:31:10;;;;;;;0.60;0.60;;;;;;;18.17;68.84;99380.97;341605;28;4551;-64
2023/07/22 00:31:22;;;;;;;0.50;0.50;;;;;;;18.15;68.76;99378.44;338683;28;18025;-64
2023/07/22 00:31:35;;;;;;;0.57;0.57;;;;;;;18.16;68.69;99384.53;341187;28;5454;-65
2023/07/22 00:31:47;;;;;;;0.80;0.70;;;;;;;18.16;68.71;99376.63;338345;28;17821;-65
2023/07/22 00:31:59;;;;;;;0.80;0.77;;;;;;;18.16;68.66;99379.28;341402;28;5144;-64
2023/07/22 00:32:11;;;;;;;0.70;0.63;;;;;;;18.17;68.61;99375.69;337947;28;18404;-64
2023/07/22 00:32:23;;;;;;;0.70;0.60;;;;;;;18.15;68.65;99372.34;341481;28;5566;-64
2023/07/22 00:32:39;;;;;;;0.60;0.60;;;;;;;18.15;68.56;99377.59;341033;28;4488;-64
2023/07/22 00:32:51;;;;;;;0.80;0.70;;;;;;;18.14;68.46;99382.00;340112;28;17818;-64
2023/07/22 00:33:03;;;;;;;1.08;0.85;;;;;;;18.13;68.80;99382.13;336988;28;18161;-65
2023/07/22 00:33:16;;;;;;;1.23;0.82;;;;;;;18.12;68.63;99386.53;341342;28;5227;-65
2023/07/22 00:33:28;;;;;;;1.17;0.80;;;;;;;18.11;68.85;99376.97;338417;28;18445;-64
2023/07/22 00:33:40;;;;;;;0.93;0.70;;;;;;;18.12;68.83;99380.44;341581;28;5002;-64
2023/07/22 00:33:52;;;;;;;0.70;0.60;;;;;;;18.09;69.13;99378.00;338840;28;19002;-65
2023/07/22 00:34:04;;;;;;;0.85;0.70;;;;;;;18.09;68.92;99378.84;341198;28;4712;-64
2023/07/22 00:34:16;;;;;;;0.90;0.70;;;;;;;18.11;69.09;99378.72;339263;28;4666;-64
2023/07/22 00:34:28;;;;;;;0.75;0.68;;;;;;;18.12;68.88;99383.06;341547;28;4695;-65
2023/07/22 00:34:40;;;;;;;0.63;0.63;;;;;;;18.12;69.01;99377.78;341803;28;4654;-65
2023/07/22 00:34:52;;;;;;;0.70;0.63;;;;;;;18.13;68.57;99382.13;338757;28;18071;-64
2023/07/22 00:35:05;;;;;;;0.75;0.60;;;;;;;18.14;68.49;99375.91;342439;28;4622;-64
2023/07/22 00:35:17;;;;;;;0.70;0.60;;;;;;;18.13;68.39;99374.22;339929;28;17860;-64
2023/07/22 00:35:29;;;;;;;0.70;0.65;;;;;;;18.11;68.32;99376.97;341380;28;5234;-64
2023/07/22 00:35:41;;;;;;;1.02;0.90;;;;;;;18.12;68.29;99380.44;343613;28;12521;-65
2023/07/22 00:35:53;;;;;;;1.10;1.00;;;;;;;18.12;68.34;99372.53;339725;28;18360;-65
2023/07/22 00:36:05;;;;;;;0.95;0.85;;;;;;;18.11;68.45;99378.72;341693;28;4751;-64
2023/07/22 00:36:17;;;;;;;0.73;0.60;;;;;;;18.12;68.52;99377.78;340063;28;12031;-65
2023/07/22 00:36:29;;;;;;;0.55;0.55;;;;;;;18.12;68.85;99375.16;341385;28;5031;-65
2023/07/22 00:36:41;;;;;;;0.50;0.50;;;;;;;18.08;69.22;99376.31;342079;28;5041;-64
2023/07/22 00:36:53;;;;;;;0.60;0.50;;;;;;;18.08;69.02;99376.31;338541;28;18509;-65
2023/07/22 00:37:05;;;;;;;0.60;0.57;;;;;;;18.08;68.98;99378.94;340816;28;5575;-64
2023/07/22 00:37:17;;;;;;;0.60;0.60;;;;;;;18.08;68.98;99377.16;341259;28;13182;-64
2023/07/22 00:37:29;;;;;;;0.70;0.70;;;;;;;18.09;68.91;99372.72;338662;28;18165;-65
2023/07/22 00:37:41;;;;;;;0.85;0.80;;;;;;;18.08;68.86;99376.31;340500;28;6375;-64
2023/07/22 00:37:53;;;;;;;0.85;0.70;;;;;;;18.08;68.83;99371.06;338814;28;5370;-65
2023/07/22 00:38:05;;;;;;;0.85;0.73;;;;;;;18.08;68.81;99371.06;341572;28;5540;-64
2023/07/22 00:38:18;;;;;;;0.82;0.80;;;;;;;18.09;68.84;99376.22;341353;28;4665;-64
2023/07/22 00:38:31;;;;;;;0.80;0.80;;;;;;;18.10;68.70;99377.06;337815;28;18196;-65
2023/07/22 00:38:43;;;;;;;0.60;0.60;;;;;;;18.09;68.68;99372.72;340585;28;4666;-65
2023/07/22 00:38:55;;;;;;;0.70;0.60;;;;;;;18.09;68.77;99375.34;338189;28;19308;-65
2023/07/22 00:39:07;;;;;;;0.70;0.70;;;;;;;18.07;68.75;99375.47;341344;28;5139;-64
2023/07/22 00:39:20;;;;;;;0.70;0.60;;;;;;;18.09;68.64;99373.59;337033;28;5217;-64
2023/07/22 00:39:32;;;;;;;0.55;0.55;;;;;;;18.08;68.68;99377.16;337991;28;18031;-64
2023/07/22 00:39:44;;;;;;;0.70;0.60;;;;;;;18.08;68.94;99376.31;340881;28;5408;-64
2023/07/22 00:39:56;;;;;;;0.73;0.63;;;;;;;18.08;68.96;99376.31;337317;28;17953;-64
2023/07/22 00:40:11;;;;;;;0.70;0.63;;;;;;;18.05;69.16;99376.50;341151;28;5295;-65
2023/07/22 00:40:24;;;;;;;0.70;0.60;;;;;;;18.04;69.22;99369.59;339972;28;17911;-65
2023/07/22 00:40:37;;;;;;;0.75;0.60;;;;;;;18.04;69.10;99378.31;338168;28;18219;-65
2023/07/22 00:40:49;;;;;;;0.80;0.60;;;;;;;18.04;69.41;99380.09;336467;28;4648;-64
2023/07/22 00:41:04;;;;;;;0.57;0.50;;;;;;;18.02;69.51;99376.75;338884;28;18131;-64
2023/07/22 00:41:16;;;;;;;0.50;0.50;;;;;;;18.03;69.28;99383.66;337839;28;18048;-64
2023/07/22 00:41:28;;;;;;;0.52;0.52;;;;;;;18.01;69.29;99380.31;341653;28;4890;-65
2023/07/22 00:41:44;;;;;;;0.70;0.63;;;;;;;17.99;69.54;99380.44;338910;28;11420;-65
2023/07/22 00:41:56;;;;;;;0.88;0.60;;;;;;;17.99;69.42;99376.94;337850;28;12723;-65
2023/07/22 00:42:08;;;;;;;1.35;0.80;;;;;;;17.98;69.43;99381.34;336257;28;4861;-64
2023/07/22 00:42:20;;;;;;;1.08;0.77;;;;;;;17.98;69.43;99378.72;340715;28;4678;-64
2023/07/22 00:42:32;;;;;;;0.93;0.80;;;;;;;17.98;69.33;99378.72;338433;28;18254;-64
2023/07/22 00:42:44;;;;;;;0.80;0.70;;;;;;;17.98;69.41;99377.91;341400;28;4640;-64
2023/07/22 00:42:56;;;;;;;0.70;0.70;;;;;;;17.99;69.45;99376.94;338367;28;17860;-65
2023/07/22 00:43:08;;;;;;;1.00;0.73;;;;;;;18.00;69.36;99382.09;341702;28;4664;-65
2023/07/22 00:43:20;;;;;;;1.00;0.68;;;;;;;18.01;69.41;99375.91;338938;28;12159;-65
2023/07/22 00:43:32;;;;;;;0.85;0.65;;;;;;;18.03;69.42;99374.00;341529;28;4552;-64
2023/07/22 00:43:44;;;;;;;0.60;0.60;;;;;;;17.98;69.49;99378.72;335707;28;5634;-65
2023/07/22 00:43:56;;;;;;;0.90;0.60;;;;;;;17.99;69.67;99379.56;337489;28;12352;-64
2023/07/22 00:44:08;;;;;;;1.20;0.65;;;;;;;17.98;69.83;99375.25;341263;28;4662;-64
2023/07/22 00:44:21;;;;;;;0.82;0.63;;;;;;;17.92;70.53;99377.34;341584;28;4650;-64
2023/07/22 00:44:33;;;;;;;0.77;0.70;;;;;;;17.89;70.30;99380.19;338508;28;17883;-64
2023/07/22 00:44:45;;;;;;;0.98;0.70;;;;;;;17.86;70.36;99383.03;341461;28;5275;-64
2023/07/22 00:44:57;;;;;;;0.98;0.60;;;;;;;17.87;70.42;99379.47;339032;28;18104;-65
2023/07/22 00:45:09;;;;;;;0.80;0.60;;;;;;;17.88;69.92;99375.88;337575;28;4998;-65
2023/07/22 00:45:21;;;;;;;1.10;0.70;;;;;;;17.89;70.29;99377.56;341930;28;4885;-64
2023/07/22 00:45:33;;;;;;;1.05;0.75;;;;;;;17.91;70.03;99373.06;339509;28;18306;-64
2023/07/22 00:45:45;;;;;;;1.88;0.80;;;;;;;17.88;70.14;99381.13;341306;28;4588;-64
2023/07/22 00:45:57;;;;;;;1.90;0.80;;;;;;;17.91;70.06;99370.41;338524;28;17695;-65
2023/07/22 00:46:09;;;;;;;1.70;0.70;;;;;;;17.92;69.93;99376.50;340562;28;4775;-65
2023/07/22 00:46:21;;;;;;;0.85;0.73;;;;;;;17.93;69.86;99379.03;341398;28;4795;-64
2023/07/22 00:46:33;;;;;;;0.80;0.80;;;;;;;17.94;69.72;99379.88;338723;28;18213;-65
2023/07/22 00:46:45;;;;;;;0.77;0.77;;;;;;;17.93;70.13;99373.78;341156;28;4630;-64
2023/07/22 00:46:58;;;;;;;0.68;0.60;;;;;;;17.89;70.24;99382.00;341636;28;4501;-65
2023/07/22 00:47:10;;;;;;;0.83;0.60;;;;;;;17.89;70.38;99377.56;338999;28;18941;-64
2023/07/22 00:47:22;;;;;;;0.80;0.60;;;;;;;17.86;70.55;99374.28;339912;28;9854;-64
2023/07/22 00:47:35;;;;;;;0.65;0.65;;;;;;;17.82;70.92;99376.25;339738;28;17647;-65
2023/07/22 00:47:47;;;;;;;0.70;0.70;;;;;;;17.83;70.59;99372.72;339389;28;5353;-65
2023/07/22 00:48:00;;;;;;;0.70;0.70;;;;;;;17.84;70.43;99374.41;336857;28;4659;-65
2023/07/22 00:48:13;;;;;;;0.80;0.80;;;;;;;17.86;70.08;99377.75;341651;28;4554;-64
2023/07/22 00:48:27;;;;;;;0.80;0.77;;;;;;;17.86;70.22;99380.41;337841;28;19103;-65
2023/07/22 00:48:40;;;;;;;0.80;0.70;;;;;;;17.86;69.95;99377.75;332999;28;16671;-64
2023/07/22 00:48:52;;;;;;;0.70;0.63;;;;;;;17.88;69.94;99381.13;340001;28;5017;-64
2023/07/22 00:49:06;;;;;;;0.80;0.60;;;;;;;17.87;70.12;99376.84;337837;28;18210;-65
2023/07/22 00:49:19;;;;;;;0.88;0.65;;;;;;;17.87;70.08;99373.38;338166;28;13495;-65
2023/07/22 00:49:32;;;;;;;0.73;0.63;;;;;;;17.88;70.07;99375.88;340584;28;5177;-65
2023/07/22 00:49:47;;;;;;;0.63;0.60;;;;;;;17.89;69.86;99377.56;337304;28;16311;-64
2023/07/22 00:50:02;;;;;;;0.70;0.70;;;;;;;17.88;69.96;99370.63;336192;28;18137;-65
2023/07/22 00:50:14;;;;;;;1.02;0.68;;;;;;;17.88;69.90;99375.88;338988;28;17858;-65
2023/07/22 00:50:26;;;;;;;1.00;0.60;;;;;;;17.90;69.91;99373.97;340624;28;4503;-64
2023/07/22 00:50:39;;;;;;;1.02;0.60;;;;;;;17.91;69.81;99375.69;339121;28;10077;-65
2023/07/22 00:50:51;;;;;;;1.00;0.70;;;;;;;17.91;69.61;99365.16;341673;28;4654;-65
2023/07/22 00:51:03;;;;;;;0.77;0.65;;;;;;;17.92;69.81;99373.88;341632;28;5519;-65
2023/07/22 00:51:15;;;;;;;0.70;0.68;;;;;;;17.93;69.46;99373.78;333388;28;18142;-65
2023/07/22 00:51:27;;;;;;;0.75;0.73;;;;;;;17.93;69.85;99384.31;341453;28;5363;-65
2023/07/22 00:51:40;;;;;;;0.90;0.80;;;;;;;17.94;69.69;99379.88;339174;28;11582;-64
2023/07/22 00:51:52;;;;;;;0.70;0.70;;;;;;;17.93;69.46;99373.78;339741;28;5707;-65
2023/07/22 00:52:05;;;;;;;0.77;0.77;;;;;;;17.94;69.50;99375.47;341331;28;4989;-64
2023/07/22 00:52:17;;;;;;;0.70;0.70;;;;;;;17.94;69.36;99372.00;338304;28;18339;-64
2023/07/22 00:52:29;;;;;;;0.70;0.60;;;;;;;17.93;69.44;99376.41;341068;28;5414;-64
2023/07/22 00:52:41;;;;;;;0.90;0.60;;;;;;;17.96;69.44;99378.81;337922;28;18258;-65
2023/07/22 00:52:53;;;;;;;0.80;0.65;;;;;;;17.94;69.53;99375.47;340358;28;5496;-64
2023/07/22 00:53:06;;;;;;;0.57;0.57;;;;;;;17.91;69.80;99372.22;338148;28;18492;-64
2023/07/22 00:53:18;;;;;;;0.50;0.50;;;;;;;17.91;69.96;99380.94;341075;28;4604;-64
2023/07/22 00:53:30;;;;;;;0.68;0.68;;;;;;;17.92;69.90;99377.34;338694;28;18345;-65
2023/07/22 00:53:42;;;;;;;0.73;0.73;;;;;;;17.92;69.65;99379.16;340237;28;5498;-64
2023/07/22 00:53:54;;;;;;;0.80;0.73;;;;;;;17.91;69.82;99378.31;340916;28;4577;-65
2023/07/22 00:54:06;;;;;;;2.80;0.90;;;;;;;17.88;70.16;99375.03;335902;28;17974;-65
2023/07/22 00:54:18;;;;;;;2.83;0.95;;;;;;;17.86;70.20;99375.13;338981;28;18493;-65
2023/07/22 00:54:31;;;;;;;2.33;0.80;;;;;;;17.85;70.29;99376.09;333688;28;4609;-65
2023/07/22 00:54:44;;;;;;;0.77;0.70;;;;;;;17.82;70.13;99371.00;339444;28;5780;-64
2023/07/22 00:54:56;;;;;;;0.90;0.75;;;;;;;17.83;70.22;99380.63;337336;28;11523;-64
2023/07/22 00:55:09;;;;;;;0.80;0.73;;;;;;;17.82;70.25;99376.25;340507;28;4713;-65
2023/07/22 00:55:21;;;;;;;0.70;0.70;;;;;;;17.83;70.01;99382.34;338647;28;18185;-64
2023/07/22 00:55:35;;;;;;;0.73;0.73;;;;;;;17.82;70.13;99376.25;336351;28;4597;-64
2023/07/22 00:55:47;;;;;;;1.00;0.80;;;;;;;17.84;70.03;99374.41;337607;28;17959;-65
2023/07/22 00:55:59;;;;;;;1.10;0.82;;;;;;;17.81;70.75;99379.84;340249;28;5012;-64
2023/07/22 00:56:11;;;;;;;1.05;0.80;;;;;;;17.81;70.45;99377.22;338544;28;11752;-65
2023/07/22 00:56:24;;;;;;;0.73;0.70;;;;;;;17.82;70.16;99381.50;340679;28;4521;-65
2023/07/22 00:56:37;;;;;;;0.70;0.60;;;;;;;17.78;70.49;99380.03;338716;28;19154;-64
2023/07/22 00:56:50;;;;;;;0.73;0.60;;;;;;;17.76;70.64;99377.50;340667;28;4704;-64
2023/07/22 00:57:02;;;;;;;0.85;0.68;;;;;;;17.76;70.89;99381.91;336725;28;16227;-65
2023/07/22 00:57:15;;;;;;;0.93;0.82;;;;;;;17.78;70.53;99380.03;338572;28;17463;-64
2023/07/22 00:57:27;;;;;;;1.08;0.98;;;;;;;17.80;70.36;99372.88;334136;28;17839;-64
2023/07/22 00:57:39;;;;;;;0.73;0.73;;;;;;;17.82;70.23;99384.13;341653;28;4769;-64
2023/07/22 00:57:51;;;;;;;1.67;0.90;;;;;;;17.84;70.08;99384.91;338251;28;12002;-65
2023/07/22 00:58:03;;;;;;;1.60;0.80;;;;;;;17.79;70.79;99379.09;340582;28;4789;-64
2023/07/22 00:58:15;;;;;;;1.67;0.85;;;;;;;17.76;71.20;99377.50;341393;28;4694;-65
2023/07/22 00:58:27;;;;;;;0.70;0.70;;;;;;;17.73;71.11;99382.13;334591;28;18383;-64
2023/07/22 00:58:40;;;;;;;0.70;0.70;;;;;;;17.73;71.25;99384.78;341600;28;4618;-64
2023/07/22 00:58:52;;;;;;;0.70;0.70;;;;;;;17.72;71.22;99380.44;338467;28;12618;-65
2023/07/22 00:59:05;;;;;;;1.40;0.60;;;;;;;17.75;70.88;99386.34;340651;28;5302;-65
2023/07/22 00:59:18;;;;;;;1.30;0.50;;;;;;;17.79;70.63;99384.38;338987;28;19053;-64
2023/07/22 00:59:30;;;;;;;0.63;0.63;;;;;;;17.80;70.52;99385.19;341566;28;4957;-65